sensor_id;sensor_type;location;lat;lon;timestamp;P1;durP1;ratioP1;P2;durP2;ratioP2
31728;SDS011;18309;43.658;1.312;2022-10-23T00:01:14;11.95;;;2.30;;
31728;SDS011;18309;43.658;1.312;2022-10-23T00:03:42;14.68;;;2.45;;
31728;SDS011;18309;43.658;1.312;2022-10-23T00:06:08;13.05;;;2.50;;
31728;SDS011;18309;43.658;1.312;2022-10-23T00:08:34;9.68;;;1.85;;
31728;SDS011;18309;43.658;1.312;2022-10-23T00:11:00;16.70;;;2.10;;
31728;SDS011;18309;43.658;1.312;2022-10-23T00:13:29;12.75;;;2.47;;
31728;SDS011;18309;43.658;1.312;2022-10-23T00:15:55;11.45;;;1.98;;
31728;SDS011;18309;43.658;1.312;2022-10-23T00:18:21;13.73;;;2.00;;
31728;SDS011;18309;43.658;1.312;2022-10-23T00:20:46;12.85;;;2.22;;
31728;SDS011;18309;43.658;1.312;2022-10-23T00:23:12;11.20;;;2.05;;
31728;SDS011;18309;43.658;1.312;2022-10-23T00:28:53;15.05;;;2.15;;
31728;SDS011;18309;43.658;1.312;2022-10-23T00:31:20;15.88;;;2.50;;
31728;SDS011;18309;43.658;1.312;2022-10-23T00:33:47;11.02;;;1.65;;
31728;SDS011;18309;43.658;1.312;2022-10-23T00:36:13;13.38;;;2.80;;
31728;SDS011;18309;43.658;1.312;2022-10-23T00:38:40;13.55;;;2.05;;
31728;SDS011;18309;43.658;1.312;2022-10-23T00:41:06;10.50;;;2.20;;
31728;SDS011;18309;43.658;1.312;2022-10-23T00:43:34;8.32;;;2.30;;
31728;SDS011;18309;43.658;1.312;2022-10-23T00:46:18;11.35;;;1.90;;
31728;SDS011;18309;43.658;1.312;2022-10-23T00:48:44;10.23;;;1.85;;
31728;SDS011;18309;43.658;1.312;2022-10-23T00:51:09;11.85;;;2.38;;
31728;SDS011;18309;43.658;1.312;2022-10-23T00:53:35;15.82;;;2.15;;
31728;SDS011;18309;43.658;1.312;2022-10-23T00:56:02;15.20;;;2.85;;
31728;SDS011;18309;43.658;1.312;2022-10-23T00:58:27;10.80;;;2.72;;
31728;SDS011;18309;43.658;1.312;2022-10-23T01:00:54;13.18;;;2.60;;
31728;SDS011;18309;43.658;1.312;2022-10-23T01:03:22;13.75;;;2.33;;
31728;SDS011;18309;43.658;1.312;2022-10-23T01:05:59;16.33;;;2.17;;
31728;SDS011;18309;43.658;1.312;2022-10-23T01:08:34;17.38;;;2.78;;
31728;SDS011;18309;43.658;1.312;2022-10-23T01:17:04;4.93;;;1.73;;
31728;SDS011;18309;43.658;1.312;2022-10-23T01:24:57;12.60;;;3.13;;
31728;SDS011;18309;43.658;1.312;2022-10-23T01:33:07;15.00;;;1.88;;
31728;SDS011;18309;43.658;1.312;2022-10-23T01:37:53;18.38;;;2.60;;
31728;SDS011;18309;43.658;1.312;2022-10-23T01:40:43;13.32;;;2.38;;
31728;SDS011;18309;43.658;1.312;2022-10-23T01:43:34;15.18;;;2.53;;
31728;SDS011;18309;43.658;1.312;2022-10-23T01:46:30;17.85;;;3.03;;
31728;SDS011;18309;43.658;1.312;2022-10-23T01:48:59;15.68;;;2.70;;
31728;SDS011;18309;43.658;1.312;2022-10-23T01:51:28;12.65;;;2.47;;
31728;SDS011;18309;43.658;1.312;2022-10-23T01:53:56;18.33;;;2.75;;
31728;SDS011;18309;43.658;1.312;2022-10-23T01:56:31;18.50;;;2.15;;
31728;SDS011;18309;43.658;1.312;2022-10-23T01:59:00;12.43;;;2.50;;
31728;SDS011;18309;43.658;1.312;2022-10-23T02:01:31;8.23;;;2.08;;
31728;SDS011;18309;43.658;1.312;2022-10-23T02:03:59;10.02;;;2.33;;
31728;SDS011;18309;43.658;1.312;2022-10-23T02:06:27;13.60;;;2.30;;
31728;SDS011;18309;43.658;1.312;2022-10-23T02:08:53;19.23;;;2.85;;
31728;SDS011;18309;43.658;1.312;2022-10-23T02:11:19;9.55;;;2.15;;
31728;SDS011;18309;43.658;1.312;2022-10-23T02:13:54;13.88;;;2.10;;
31728;SDS011;18309;43.658;1.312;2022-10-23T02:24:33;18.55;;;2.90;;
31728;SDS011;18309;43.658;1.312;2022-10-23T02:27:06;13.95;;;2.58;;
31728;SDS011;18309;43.658;1.312;2022-10-23T02:29:51;21.48;;;2.92;;
31728;SDS011;18309;43.658;1.312;2022-10-23T02:32:24;13.63;;;2.78;;
31728;SDS011;18309;43.658;1.312;2022-10-23T02:34:51;20.45;;;2.78;;
31728;SDS011;18309;43.658;1.312;2022-10-23T02:37:17;12.60;;;2.00;;
31728;SDS011;18309;43.658;1.312;2022-10-23T02:39:43;12.45;;;2.03;;
31728;SDS011;18309;43.658;1.312;2022-10-23T02:44:54;26.63;;;2.92;;
31728;SDS011;18309;43.658;1.312;2022-10-23T02:48:18;20.10;;;2.83;;
31728;SDS011;18309;43.658;1.312;2022-10-23T02:53:09;13.27;;;2.75;;
31728;SDS011;18309;43.658;1.312;2022-10-23T02:58:19;14.88;;;2.83;;
31728;SDS011;18309;43.658;1.312;2022-10-23T03:01:13;17.30;;;2.45;;
31728;SDS011;18309;43.658;1.312;2022-10-23T03:03:43;11.98;;;2.22;;
31728;SDS011;18309;43.658;1.312;2022-10-23T03:06:13;17.73;;;2.97;;
31728;SDS011;18309;43.658;1.312;2022-10-23T03:08:58;17.60;;;2.85;;
31728;SDS011;18309;43.658;1.312;2022-10-23T03:11:28;12.35;;;2.42;;
31728;SDS011;18309;43.658;1.312;2022-10-23T03:13:54;12.10;;;1.95;;
31728;SDS011;18309;43.658;1.312;2022-10-23T03:16:20;14.35;;;2.85;;
31728;SDS011;18309;43.658;1.312;2022-10-23T03:18:45;19.27;;;2.50;;
31728;SDS011;18309;43.658;1.312;2022-10-23T03:21:11;13.30;;;3.28;;
31728;SDS011;18309;43.658;1.312;2022-10-23T03:23:37;14.27;;;2.40;;
31728;SDS011;18309;43.658;1.312;2022-10-23T03:26:02;18.88;;;2.90;;
31728;SDS011;18309;43.658;1.312;2022-10-23T03:28:28;14.32;;;2.53;;
31728;SDS011;18309;43.658;1.312;2022-10-23T03:30:54;14.02;;;2.60;;
31728;SDS011;18309;43.658;1.312;2022-10-23T03:33:20;19.25;;;2.95;;
31728;SDS011;18309;43.658;1.312;2022-10-23T03:35:49;11.38;;;2.22;;
31728;SDS011;18309;43.658;1.312;2022-10-23T03:38:15;20.90;;;4.38;;
31728;SDS011;18309;43.658;1.312;2022-10-23T03:40:41;13.68;;;2.53;;
31728;SDS011;18309;43.658;1.312;2022-10-23T03:43:07;14.90;;;2.42;;
31728;SDS011;18309;43.658;1.312;2022-10-23T03:45:32;22.05;;;3.10;;
31728;SDS011;18309;43.658;1.312;2022-10-23T03:47:58;12.90;;;2.63;;
31728;SDS011;18309;43.658;1.312;2022-10-23T03:50:24;14.32;;;3.25;;
31728;SDS011;18309;43.658;1.312;2022-10-23T03:52:49;17.38;;;2.72;;
31728;SDS011;18309;43.658;1.312;2022-10-23T03:55:15;26.77;;;3.13;;
31728;SDS011;18309;43.658;1.312;2022-10-23T03:57:42;17.60;;;4.38;;
31728;SDS011;18309;43.658;1.312;2022-10-23T04:00:08;16.40;;;2.83;;
31728;SDS011;18309;43.658;1.312;2022-10-23T04:02:34;12.70;;;3.05;;
31728;SDS011;18309;43.658;1.312;2022-10-23T04:05:00;16.02;;;3.10;;
31728;SDS011;18309;43.658;1.312;2022-10-23T04:07:25;20.30;;;3.75;;
31728;SDS011;18309;43.658;1.312;2022-10-23T04:09:51;12.48;;;2.97;;
31728;SDS011;18309;43.658;1.312;2022-10-23T04:12:16;12.75;;;2.80;;
31728;SDS011;18309;43.658;1.312;2022-10-23T04:14:42;22.58;;;3.13;;
31728;SDS011;18309;43.658;1.312;2022-10-23T04:17:08;21.08;;;3.13;;
31728;SDS011;18309;43.658;1.312;2022-10-23T04:19:34;17.15;;;3.35;;
31728;SDS011;18309;43.658;1.312;2022-10-23T04:21:59;20.17;;;2.80;;
31728;SDS011;18309;43.658;1.312;2022-10-23T04:24:25;16.02;;;3.40;;
31728;SDS011;18309;43.658;1.312;2022-10-23T04:26:51;22.15;;;3.47;;
31728;SDS011;18309;43.658;1.312;2022-10-23T04:29:17;20.20;;;3.25;;
31728;SDS011;18309;43.658;1.312;2022-10-23T04:31:46;16.90;;;3.40;;
31728;SDS011;18309;43.658;1.312;2022-10-23T04:34:12;16.33;;;2.75;;
31728;SDS011;18309;43.658;1.312;2022-10-23T04:36:38;15.23;;;3.28;;
31728;SDS011;18309;43.658;1.312;2022-10-23T04:39:03;20.88;;;3.47;;
31728;SDS011;18309;43.658;1.312;2022-10-23T04:41:29;14.50;;;3.45;;
31728;SDS011;18309;43.658;1.312;2022-10-23T04:43:55;11.32;;;3.10;;
31728;SDS011;18309;43.658;1.312;2022-10-23T04:46:20;11.10;;;2.60;;
31728;SDS011;18309;43.658;1.312;2022-10-23T04:48:46;21.73;;;2.75;;
31728;SDS011;18309;43.658;1.312;2022-10-23T04:51:12;25.30;;;3.53;;
31728;SDS011;18309;43.658;1.312;2022-10-23T04:53:37;20.25;;;3.45;;
31728;SDS011;18309;43.658;1.312;2022-10-23T04:56:03;17.90;;;3.30;;
31728;SDS011;18309;43.658;1.312;2022-10-23T04:58:29;16.67;;;3.30;;
31728;SDS011;18309;43.658;1.312;2022-10-23T05:00:55;17.25;;;3.28;;
31728;SDS011;18309;43.658;1.312;2022-10-23T05:03:22;19.45;;;2.60;;
31728;SDS011;18309;43.658;1.312;2022-10-23T05:05:50;21.70;;;3.85;;
31728;SDS011;18309;43.658;1.312;2022-10-23T05:08:18;14.10;;;3.05;;
31728;SDS011;18309;43.658;1.312;2022-10-23T05:10:44;16.45;;;2.92;;
31728;SDS011;18309;43.658;1.312;2022-10-23T05:13:11;18.42;;;2.92;;
31728;SDS011;18309;43.658;1.312;2022-10-23T05:15:37;15.73;;;3.30;;
31728;SDS011;18309;43.658;1.312;2022-10-23T05:18:13;13.90;;;2.75;;
31728;SDS011;18309;43.658;1.312;2022-10-23T05:20:53;19.02;;;2.92;;
31728;SDS011;18309;43.658;1.312;2022-10-23T05:23:24;14.98;;;3.25;;
31728;SDS011;18309;43.658;1.312;2022-10-23T05:25:52;20.67;;;4.00;;
31728;SDS011;18309;43.658;1.312;2022-10-23T05:28:18;10.70;;;3.20;;
31728;SDS011;18309;43.658;1.312;2022-10-23T05:30:43;16.92;;;2.80;;
31728;SDS011;18309;43.658;1.312;2022-10-23T05:33:10;14.07;;;3.53;;
31728;SDS011;18309;43.658;1.312;2022-10-23T05:35:36;19.50;;;3.58;;
31728;SDS011;18309;43.658;1.312;2022-10-23T05:38:03;20.38;;;3.63;;
31728;SDS011;18309;43.658;1.312;2022-10-23T05:40:32;20.13;;;3.97;;
31728;SDS011;18309;43.658;1.312;2022-10-23T05:42:58;15.75;;;3.35;;
31728;SDS011;18309;43.658;1.312;2022-10-23T05:45:23;19.02;;;3.67;;
31728;SDS011;18309;43.658;1.312;2022-10-23T05:47:49;17.70;;;3.53;;
31728;SDS011;18309;43.658;1.312;2022-10-23T05:50:17;25.98;;;3.92;;
31728;SDS011;18309;43.658;1.312;2022-10-23T05:52:46;23.33;;;3.35;;
31728;SDS011;18309;43.658;1.312;2022-10-23T05:55:13;17.13;;;3.08;;
31728;SDS011;18309;43.658;1.312;2022-10-23T05:57:39;17.95;;;3.80;;
31728;SDS011;18309;43.658;1.312;2022-10-23T06:00:06;17.38;;;3.63;;
31728;SDS011;18309;43.658;1.312;2022-10-23T06:02:32;12.48;;;2.97;;
31728;SDS011;18309;43.658;1.312;2022-10-23T06:04:58;21.77;;;3.08;;
31728;SDS011;18309;43.658;1.312;2022-10-23T06:07:25;22.52;;;4.07;;
31728;SDS011;18309;43.658;1.312;2022-10-23T06:09:51;26.55;;;3.78;;
31728;SDS011;18309;43.658;1.312;2022-10-23T06:12:17;14.50;;;4.55;;
31728;SDS011;18309;43.658;1.312;2022-10-23T06:14:44;18.83;;;3.42;;
31728;SDS011;18309;43.658;1.312;2022-10-23T06:17:10;25.58;;;3.78;;
31728;SDS011;18309;43.658;1.312;2022-10-23T06:19:35;17.25;;;3.55;;
31728;SDS011;18309;43.658;1.312;2022-10-23T06:22:01;21.00;;;3.97;;
31728;SDS011;18309;43.658;1.312;2022-10-23T06:24:29;21.25;;;3.65;;
31728;SDS011;18309;43.658;1.312;2022-10-23T06:26:55;15.55;;;3.38;;
31728;SDS011;18309;43.658;1.312;2022-10-23T06:29:20;22.45;;;4.05;;
31728;SDS011;18309;43.658;1.312;2022-10-23T06:31:46;18.35;;;3.53;;
31728;SDS011;18309;43.658;1.312;2022-10-23T06:34:12;21.35;;;3.40;;
31728;SDS011;18309;43.658;1.312;2022-10-23T06:36:38;19.25;;;4.07;;
31728;SDS011;18309;43.658;1.312;2022-10-23T06:39:04;26.17;;;3.40;;
31728;SDS011;18309;43.658;1.312;2022-10-23T06:41:30;20.25;;;3.45;;
31728;SDS011;18309;43.658;1.312;2022-10-23T06:43:55;17.33;;;3.17;;
31728;SDS011;18309;43.658;1.312;2022-10-23T06:46:21;32.08;;;4.45;;
31728;SDS011;18309;43.658;1.312;2022-10-23T06:48:47;26.83;;;3.97;;
31728;SDS011;18309;43.658;1.312;2022-10-23T06:51:13;23.00;;;3.00;;
31728;SDS011;18309;43.658;1.312;2022-10-23T06:53:41;18.77;;;3.70;;
31728;SDS011;18309;43.658;1.312;2022-10-23T06:56:08;21.25;;;4.18;;
31728;SDS011;18309;43.658;1.312;2022-10-23T06:58:37;30.02;;;4.05;;
31728;SDS011;18309;43.658;1.312;2022-10-23T07:01:04;27.88;;;3.80;;
31728;SDS011;18309;43.658;1.312;2022-10-23T07:03:31;24.10;;;4.32;;
31728;SDS011;18309;43.658;1.312;2022-10-23T07:05:59;25.38;;;3.65;;
31728;SDS011;18309;43.658;1.312;2022-10-23T07:08:26;18.33;;;4.22;;
31728;SDS011;18309;43.658;1.312;2022-10-23T07:10:52;20.17;;;4.07;;
31728;SDS011;18309;43.658;1.312;2022-10-23T07:13:17;25.80;;;4.10;;
31728;SDS011;18309;43.658;1.312;2022-10-23T07:15:43;23.92;;;3.72;;
31728;SDS011;18309;43.658;1.312;2022-10-23T07:18:09;15.70;;;4.32;;
31728;SDS011;18309;43.658;1.312;2022-10-23T07:20:38;21.98;;;3.92;;
31728;SDS011;18309;43.658;1.312;2022-10-23T07:23:05;20.88;;;4.90;;
31728;SDS011;18309;43.658;1.312;2022-10-23T07:25:31;18.40;;;4.47;;
31728;SDS011;18309;43.658;1.312;2022-10-23T07:27:57;20.85;;;4.00;;
31728;SDS011;18309;43.658;1.312;2022-10-23T07:30:23;23.70;;;3.92;;
31728;SDS011;18309;43.658;1.312;2022-10-23T07:32:48;22.63;;;4.32;;
31728;SDS011;18309;43.658;1.312;2022-10-23T07:35:15;25.38;;;4.43;;
31728;SDS011;18309;43.658;1.312;2022-10-23T07:37:41;36.85;;;4.78;;
31728;SDS011;18309;43.658;1.312;2022-10-23T07:40:07;18.23;;;3.83;;
31728;SDS011;18309;43.658;1.312;2022-10-23T07:42:33;26.98;;;4.45;;
31728;SDS011;18309;43.658;1.312;2022-10-23T07:44:59;25.75;;;3.60;;
31728;SDS011;18309;43.658;1.312;2022-10-23T07:47:25;26.80;;;3.75;;
31728;SDS011;18309;43.658;1.312;2022-10-23T07:49:51;24.50;;;3.50;;
31728;SDS011;18309;43.658;1.312;2022-10-23T07:52:17;17.50;;;3.78;;
31728;SDS011;18309;43.658;1.312;2022-10-23T07:54:42;30.63;;;5.18;;
31728;SDS011;18309;43.658;1.312;2022-10-23T07:57:09;19.33;;;3.63;;
31728;SDS011;18309;43.658;1.312;2022-10-23T07:59:36;34.03;;;3.75;;
31728;SDS011;18309;43.658;1.312;2022-10-23T08:02:02;31.65;;;4.28;;
31728;SDS011;18309;43.658;1.312;2022-10-23T08:04:28;21.05;;;3.30;;
31728;SDS011;18309;43.658;1.312;2022-10-23T08:06:54;29.33;;;4.82;;
31728;SDS011;18309;43.658;1.312;2022-10-23T08:09:20;25.80;;;3.60;;
31728;SDS011;18309;43.658;1.312;2022-10-23T08:11:46;20.13;;;3.80;;
31728;SDS011;18309;43.658;1.312;2022-10-23T08:14:12;29.30;;;4.95;;
31728;SDS011;18309;43.658;1.312;2022-10-23T08:16:38;22.85;;;4.40;;
31728;SDS011;18309;43.658;1.312;2022-10-23T08:19:04;27.58;;;4.70;;
31728;SDS011;18309;43.658;1.312;2022-10-23T08:21:31;25.05;;;4.07;;
31728;SDS011;18309;43.658;1.312;2022-10-23T08:23:58;28.63;;;4.30;;
31728;SDS011;18309;43.658;1.312;2022-10-23T08:26:24;24.40;;;4.00;;
31728;SDS011;18309;43.658;1.312;2022-10-23T08:28:51;16.88;;;3.85;;
31728;SDS011;18309;43.658;1.312;2022-10-23T08:31:18;18.75;;;3.80;;
31728;SDS011;18309;43.658;1.312;2022-10-23T08:33:45;19.85;;;4.18;;
31728;SDS011;18309;43.658;1.312;2022-10-23T08:36:18;26.48;;;3.88;;
31728;SDS011;18309;43.658;1.312;2022-10-23T08:41:32;28.23;;;5.18;;
31728;SDS011;18309;43.658;1.312;2022-10-23T08:44:22;21.83;;;4.32;;
31728;SDS011;18309;43.658;1.312;2022-10-23T08:46:55;25.33;;;4.30;;
31728;SDS011;18309;43.658;1.312;2022-10-23T08:49:44;28.38;;;4.75;;
31728;SDS011;18309;43.658;1.312;2022-10-23T08:52:37;23.48;;;4.20;;
31728;SDS011;18309;43.658;1.312;2022-10-23T08:57:57;21.15;;;3.65;;
31728;SDS011;18309;43.658;1.312;2022-10-23T09:00:27;26.25;;;3.88;;
31728;SDS011;18309;43.658;1.312;2022-10-23T09:02:54;23.05;;;4.60;;
31728;SDS011;18309;43.658;1.312;2022-10-23T09:05:24;19.08;;;4.32;;
31728;SDS011;18309;43.658;1.312;2022-10-23T09:08:00;24.88;;;4.53;;
31728;SDS011;18309;43.658;1.312;2022-10-23T09:16:42;21.80;;;4.75;;
31728;SDS011;18309;43.658;1.312;2022-10-23T09:18:48;31.15;;;4.57;;
31728;SDS011;18309;43.658;1.312;2022-10-23T09:21:14;27.95;;;5.82;;
31728;SDS011;18309;43.658;1.312;2022-10-23T09:23:40;24.00;;;4.50;;
31728;SDS011;18309;43.658;1.312;2022-10-23T09:26:15;26.48;;;4.28;;
31728;SDS011;18309;43.658;1.312;2022-10-23T09:28:46;19.83;;;5.10;;
31728;SDS011;18309;43.658;1.312;2022-10-23T09:31:17;28.23;;;4.40;;
31728;SDS011;18309;43.658;1.312;2022-10-23T09:33:53;29.40;;;4.85;;
31728;SDS011;18309;43.658;1.312;2022-10-23T09:36:21;25.05;;;4.70;;
31728;SDS011;18309;43.658;1.312;2022-10-23T09:38:49;17.33;;;4.20;;
31728;SDS011;18309;43.658;1.312;2022-10-23T09:43:41;30.42;;;4.90;;
31728;SDS011;18309;43.658;1.312;2022-10-23T09:46:07;22.05;;;4.93;;
31728;SDS011;18309;43.658;1.312;2022-10-23T09:48:34;20.17;;;4.32;;
31728;SDS011;18309;43.658;1.312;2022-10-23T09:51:13;25.52;;;4.20;;
31728;SDS011;18309;43.658;1.312;2022-10-23T09:53:51;24.55;;;4.75;;
31728;SDS011;18309;43.658;1.312;2022-10-23T09:59:15;28.05;;;5.00;;
31728;SDS011;18309;43.658;1.312;2022-10-23T10:01:54;22.73;;;4.28;;
31728;SDS011;18309;43.658;1.312;2022-10-23T10:04:34;29.35;;;4.07;;
31728;SDS011;18309;43.658;1.312;2022-10-23T10:07:05;22.50;;;3.78;;
31728;SDS011;18309;43.658;1.312;2022-10-23T10:09:41;20.42;;;4.10;;
31728;SDS011;18309;43.658;1.312;2022-10-23T10:15:16;21.02;;;3.85;;
31728;SDS011;18309;43.658;1.312;2022-10-23T10:25:56;21.17;;;3.40;;
31728;SDS011;18309;43.658;1.312;2022-10-23T10:34:12;17.23;;;2.65;;
31728;SDS011;18309;43.658;1.312;2022-10-23T10:36:48;18.08;;;3.60;;
31728;SDS011;18309;43.658;1.312;2022-10-23T10:50:15;18.15;;;2.65;;
31728;SDS011;18309;43.658;1.312;2022-10-23T10:57:49;16.95;;;2.90;;
31728;SDS011;18309;43.658;1.312;2022-10-23T11:00:23;16.27;;;2.70;;
31728;SDS011;18309;43.658;1.312;2022-10-23T11:08:15;13.02;;;2.53;;
31728;SDS011;18309;43.658;1.312;2022-10-23T11:10:53;19.02;;;2.67;;
31728;SDS011;18309;43.658;1.312;2022-10-23T11:13:28;9.32;;;2.45;;
31728;SDS011;18309;43.658;1.312;2022-10-23T11:16:24;16.75;;;2.72;;
31728;SDS011;18309;43.658;1.312;2022-10-23T11:19:02;19.83;;;2.80;;
31728;SDS011;18309;43.658;1.312;2022-10-23T11:21:41;10.82;;;1.92;;
31728;SDS011;18309;43.658;1.312;2022-10-23T11:24:50;4.80;;;0.93;;
31728;SDS011;18309;43.658;1.312;2022-10-23T11:35:50;7.47;;;0.77;;
31728;SDS011;18309;43.658;1.312;2022-10-23T11:38:34;4.23;;;0.93;;
31728;SDS011;18309;43.658;1.312;2022-10-23T11:41:03;2.83;;;0.55;;
31728;SDS011;18309;43.658;1.312;2022-10-23T11:43:57;19.02;;;1.05;;
31728;SDS011;18309;43.658;1.312;2022-10-23T11:46:28;9.18;;;1.00;;
31728;SDS011;18309;43.658;1.312;2022-10-23T11:48:54;3.40;;;1.08;;
31728;SDS011;18309;43.658;1.312;2022-10-23T11:54:05;6.65;;;0.98;;
31728;SDS011;18309;43.658;1.312;2022-10-23T12:10:06;6.68;;;1.08;;
31728;SDS011;18309;43.658;1.312;2022-10-23T12:13:01;3.92;;;1.08;;
31728;SDS011;18309;43.658;1.312;2022-10-23T12:15:28;15.05;;;1.33;;
31728;SDS011;18309;43.658;1.312;2022-10-23T12:18:06;4.53;;;0.80;;
31728;SDS011;18309;43.658;1.312;2022-10-23T12:20:52;9.50;;;1.80;;
31728;SDS011;18309;43.658;1.312;2022-10-23T12:28:33;14.23;;;1.35;;
31728;SDS011;18309;43.658;1.312;2022-10-23T12:31:25;4.70;;;1.20;;
31728;SDS011;18309;43.658;1.312;2022-10-23T12:39:32;7.85;;;1.02;;
31728;SDS011;18309;43.658;1.312;2022-10-23T12:42:05;8.40;;;1.15;;
31728;SDS011;18309;43.658;1.312;2022-10-23T12:44:40;13.55;;;1.75;;
31728;SDS011;18309;43.658;1.312;2022-10-23T12:47:05;4.93;;;1.17;;
31728;SDS011;18309;43.658;1.312;2022-10-23T12:49:39;9.93;;;1.23;;
31728;SDS011;18309;43.658;1.312;2022-10-23T12:52:17;7.25;;;1.55;;
31728;SDS011;18309;43.658;1.312;2022-10-23T12:54:45;6.95;;;1.20;;
31728;SDS011;18309;43.658;1.312;2022-10-23T12:59:47;18.30;;;2.00;;
31728;SDS011;18309;43.658;1.312;2022-10-23T13:04:44;13.63;;;1.63;;
31728;SDS011;18309;43.658;1.312;2022-10-23T13:07:10;6.10;;;1.00;;
31728;SDS011;18309;43.658;1.312;2022-10-23T13:09:40;6.72;;;1.73;;
31728;SDS011;18309;43.658;1.312;2022-10-23T13:12:07;12.65;;;1.33;;
31728;SDS011;18309;43.658;1.312;2022-10-23T13:14:56;11.45;;;1.67;;
31728;SDS011;18309;43.658;1.312;2022-10-23T13:17:40;9.15;;;2.00;;
31728;SDS011;18309;43.658;1.312;2022-10-23T13:20:27;14.43;;;1.33;;
31728;SDS011;18309;43.658;1.312;2022-10-23T13:33:47;10.48;;;1.52;;
31728;SDS011;18309;43.658;1.312;2022-10-23T13:36:29;11.75;;;1.20;;
31728;SDS011;18309;43.658;1.312;2022-10-23T13:41:27;12.07;;;1.42;;
31728;SDS011;18309;43.658;1.312;2022-10-23T13:43:59;14.43;;;1.40;;
31728;SDS011;18309;43.658;1.312;2022-10-23T13:46:25;9.50;;;1.75;;
31728;SDS011;18309;43.658;1.312;2022-10-23T13:48:50;11.02;;;1.52;;
31728;SDS011;18309;43.658;1.312;2022-10-23T13:51:24;6.72;;;1.40;;
31728;SDS011;18309;43.658;1.312;2022-10-23T13:53:55;13.15;;;1.50;;
31728;SDS011;18309;43.658;1.312;2022-10-23T13:56:21;18.77;;;2.42;;
31728;SDS011;18309;43.658;1.312;2022-10-23T13:58:48;17.48;;;2.22;;
31728;SDS011;18309;43.658;1.312;2022-10-23T14:04:00;14.60;;;1.85;;
31728;SDS011;18309;43.658;1.312;2022-10-23T14:06:28;16.92;;;2.53;;
31728;SDS011;18309;43.658;1.312;2022-10-23T14:08:53;15.35;;;2.30;;
31728;SDS011;18309;43.658;1.312;2022-10-23T14:11:19;13.85;;;1.90;;
31728;SDS011;18309;43.658;1.312;2022-10-23T14:13:45;21.45;;;2.03;;
31728;SDS011;18309;43.658;1.312;2022-10-23T14:16:12;13.38;;;2.33;;
31728;SDS011;18309;43.658;1.312;2022-10-23T14:18:40;8.52;;;1.90;;
31728;SDS011;18309;43.658;1.312;2022-10-23T14:21:07;18.83;;;2.50;;
31728;SDS011;18309;43.658;1.312;2022-10-23T14:23:35;15.50;;;2.47;;
31728;SDS011;18309;43.658;1.312;2022-10-23T14:26:08;10.45;;;1.67;;
31728;SDS011;18309;43.658;1.312;2022-10-23T14:28:36;12.35;;;2.17;;
31728;SDS011;18309;43.658;1.312;2022-10-23T14:31:05;18.98;;;2.42;;
31728;SDS011;18309;43.658;1.312;2022-10-23T14:33:33;9.40;;;2.20;;
31728;SDS011;18309;43.658;1.312;2022-10-23T14:35:59;14.65;;;2.33;;
31728;SDS011;18309;43.658;1.312;2022-10-23T14:38:24;15.65;;;2.33;;
31728;SDS011;18309;43.658;1.312;2022-10-23T14:40:50;12.63;;;2.08;;
31728;SDS011;18309;43.658;1.312;2022-10-23T14:43:16;18.58;;;2.20;;
31728;SDS011;18309;43.658;1.312;2022-10-23T14:45:42;15.00;;;2.20;;
31728;SDS011;18309;43.658;1.312;2022-10-23T14:48:08;20.20;;;2.47;;
31728;SDS011;18309;43.658;1.312;2022-10-23T14:50:35;10.43;;;2.28;;
31728;SDS011;18309;43.658;1.312;2022-10-23T14:53:01;23.65;;;2.60;;
31728;SDS011;18309;43.658;1.312;2022-10-23T14:55:27;17.30;;;2.20;;
31728;SDS011;18309;43.658;1.312;2022-10-23T14:57:54;18.13;;;2.45;;
31728;SDS011;18309;43.658;1.312;2022-10-23T15:00:21;16.02;;;2.13;;
31728;SDS011;18309;43.658;1.312;2022-10-23T15:02:47;13.88;;;2.45;;
31728;SDS011;18309;43.658;1.312;2022-10-23T15:05:13;17.23;;;2.63;;
31728;SDS011;18309;43.658;1.312;2022-10-23T15:07:39;14.55;;;2.72;;
31728;SDS011;18309;43.658;1.312;2022-10-23T15:10:04;18.17;;;2.67;;
31728;SDS011;18309;43.658;1.312;2022-10-23T15:12:32;13.88;;;1.95;;
31728;SDS011;18309;43.658;1.312;2022-10-23T15:14:59;14.55;;;3.17;;
31728;SDS011;18309;43.658;1.312;2022-10-23T15:17:25;15.98;;;2.67;;
31728;SDS011;18309;43.658;1.312;2022-10-23T15:19:50;16.83;;;3.15;;
31728;SDS011;18309;43.658;1.312;2022-10-23T15:22:16;18.98;;;2.83;;
31728;SDS011;18309;43.658;1.312;2022-10-23T15:24:43;22.38;;;3.00;;
31728;SDS011;18309;43.658;1.312;2022-10-23T15:27:09;19.92;;;2.78;;
31728;SDS011;18309;43.658;1.312;2022-10-23T15:29:35;19.20;;;2.75;;
31728;SDS011;18309;43.658;1.312;2022-10-23T15:32:01;12.15;;;1.92;;
31728;SDS011;18309;43.658;1.312;2022-10-23T15:34:29;24.10;;;2.50;;
31728;SDS011;18309;43.658;1.312;2022-10-23T15:36:56;14.88;;;2.85;;
31728;SDS011;18309;43.658;1.312;2022-10-23T15:39:24;21.20;;;3.47;;
31728;SDS011;18309;43.658;1.312;2022-10-23T15:41:58;35.15;;;4.30;;
31728;SDS011;18309;43.658;1.312;2022-10-23T15:44:25;15.98;;;2.80;;
31728;SDS011;18309;43.658;1.312;2022-10-23T15:46:53;17.92;;;2.88;;
31728;SDS011;18309;43.658;1.312;2022-10-23T15:49:21;17.02;;;2.45;;
31728;SDS011;18309;43.658;1.312;2022-10-23T15:51:49;10.68;;;2.28;;
31728;SDS011;18309;43.658;1.312;2022-10-23T15:54:16;24.77;;;3.40;;
31728;SDS011;18309;43.658;1.312;2022-10-23T15:56:47;17.50;;;2.83;;
31728;SDS011;18309;43.658;1.312;2022-10-23T15:59:16;26.92;;;2.97;;
31728;SDS011;18309;43.658;1.312;2022-10-23T16:01:43;19.35;;;3.85;;
31728;SDS011;18309;43.658;1.312;2022-10-23T16:04:09;16.92;;;4.20;;
31728;SDS011;18309;43.658;1.312;2022-10-23T16:06:35;15.27;;;3.85;;
31728;SDS011;18309;43.658;1.312;2022-10-23T16:09:01;17.05;;;4.18;;
31728;SDS011;18309;43.658;1.312;2022-10-23T16:11:29;16.17;;;4.38;;
31728;SDS011;18309;43.658;1.312;2022-10-23T16:13:57;11.95;;;3.00;;
31728;SDS011;18309;43.658;1.312;2022-10-23T16:16:23;18.60;;;3.35;;
31728;SDS011;18309;43.658;1.312;2022-10-23T16:18:51;23.15;;;3.53;;
31728;SDS011;18309;43.658;1.312;2022-10-23T16:23:44;17.98;;;3.28;;
31728;SDS011;18309;43.658;1.312;2022-10-23T16:26:10;14.15;;;1.35;;
31728;SDS011;18309;43.658;1.312;2022-10-23T16:28:36;18.00;;;1.75;;
31728;SDS011;18309;43.658;1.312;2022-10-23T16:31:02;10.98;;;1.83;;
31728;SDS011;18309;43.658;1.312;2022-10-23T16:33:32;19.70;;;1.90;;
31728;SDS011;18309;43.658;1.312;2022-10-23T16:36:01;10.43;;;2.38;;
31728;SDS011;18309;43.658;1.312;2022-10-23T16:38:28;14.35;;;2.58;;
31728;SDS011;18309;43.658;1.312;2022-10-23T16:40:53;14.15;;;2.05;;
31728;SDS011;18309;43.658;1.312;2022-10-23T16:43:19;8.98;;;1.73;;
31728;SDS011;18309;43.658;1.312;2022-10-23T16:45:45;6.35;;;1.30;;
31728;SDS011;18309;43.658;1.312;2022-10-23T16:48:11;9.90;;;1.20;;
31728;SDS011;18309;43.658;1.312;2022-10-23T16:50:37;9.93;;;1.10;;
31728;SDS011;18309;43.658;1.312;2022-10-23T16:53:04;5.15;;;1.10;;
31728;SDS011;18309;43.658;1.312;2022-10-23T16:55:30;5.82;;;0.98;;
31728;SDS011;18309;43.658;1.312;2022-10-23T16:57:55;12.20;;;1.02;;
31728;SDS011;18309;43.658;1.312;2022-10-23T17:00:24;8.77;;;1.20;;
31728;SDS011;18309;43.658;1.312;2022-10-23T17:02:58;8.57;;;1.20;;
31728;SDS011;18309;43.658;1.312;2022-10-23T17:05:33;5.45;;;1.27;;
31728;SDS011;18309;43.658;1.312;2022-10-23T17:07:59;6.28;;;0.80;;
31728;SDS011;18309;43.658;1.312;2022-10-23T17:10:25;6.25;;;0.90;;
31728;SDS011;18309;43.658;1.312;2022-10-23T17:12:51;3.88;;;0.95;;
31728;SDS011;18309;43.658;1.312;2022-10-23T17:15:16;9.63;;;1.10;;
31728;SDS011;18309;43.658;1.312;2022-10-23T17:17:45;5.72;;;1.17;;
31728;SDS011;18309;43.658;1.312;2022-10-23T17:20:11;6.05;;;0.85;;